Skip Navigation LinksHome page > Weather > Current weather Skip Navigation Links

Current Weather

Alert, Nunavut

For information only: do not use for flight planning or navigation.
Latest weather
Observation time Sunday, October 4, 2015 11:00 AM EDT
Local time Sunday, October 4, 2015 11:13 AM EDT
Flight conditions Visual Meteorological Conditions
Wind direction Southwest (230°)
Wind speed 30 mph
Visibility 15 mi.
Present weather drifting snow
Sky condition
Ceiling 24,000 ft. broken clouds
Cloud layer few clouds 9,000 ft.
Cloud layer broken clouds 24,000 ft.
Temperature 19°F
Dewpoint 10°F
Altimeter 29.84 in.Hg
Derived measurements
Relative humidity 67%
Wind chill 1°F
Density altitude -2595 ft.
Sea-level pressure 29.85 in.Hg
METAR CYLT 041500Z 23026KT 15SM DRSN FEW090 BKN240 M07/M12 A2984 RMK AC2CI2 SLP110


Location code

InnerDrive.Weather 4.0.5722.1 Release CLR 4.0.30319.34014
Copyright ©2015 Inner Drive Technology. All rights reserved. Portions Copyright ©1986-2015 David Braverman.

Find weather

Site navigation

Skip Navigation Links

Place info

Page info

PayPal - The safer, easier way to pay online!

Return home.

Copyright ©2015 Inner Drive Technology. Purveyors of fine, hand-crafted computer software. Page printed 2015-10-04T15:13:15 UTC.